sensor_id;sensor_type;location;lat;lon;timestamp;temperature;humidity
11025;DHT22;22890;51.820;8.682;2022-07-03T00:00:06;17.90;99.90
11025;DHT22;22890;51.820;8.682;2022-07-03T00:02:33;17.80;99.90
11025;DHT22;22890;51.820;8.682;2022-07-03T00:07:26;17.70;99.90
11025;DHT22;22890;51.820;8.682;2022-07-03T00:09:53;17.60;99.90
11025;DHT22;22890;51.820;8.682;2022-07-03T00:14:47;17.50;99.90
11025;DHT22;22890;51.820;8.682;2022-07-03T00:22:12;17.30;99.90
11025;DHT22;22890;51.820;8.682;2022-07-03T00:24:49;17.30;99.90
11025;DHT22;22890;51.820;8.682;2022-07-03T00:27:18;17.20;99.90
11025;DHT22;22890;51.820;8.682;2022-07-03T00:32:23;17.10;99.90
11025;DHT22;22890;51.820;8.682;2022-07-03T00:34:51;17.00;99.90
11025;DHT22;22890;51.820;8.682;2022-07-03T00:42:15;16.80;99.90
11025;DHT22;22890;51.820;8.682;2022-07-03T00:47:16;16.70;99.90
11025;DHT22;22890;51.820;8.682;2022-07-03T00:49:52;16.70;99.90
11025;DHT22;22890;51.820;8.682;2022-07-03T00:52:20;16.60;99.90
11025;DHT22;22890;51.820;8.682;2022-07-03T00:54:56;16.60;99.90
11025;DHT22;22890;51.820;8.682;2022-07-03T00:57:24;16.50;99.90
11025;DHT22;22890;51.820;8.682;2022-07-03T01:02:31;16.50;99.90
11025;DHT22;22890;51.820;8.682;2022-07-03T01:07:43;16.40;99.90
11025;DHT22;22890;51.820;8.682;2022-07-03T01:10:32;16.40;99.90
11025;DHT22;22890;51.820;8.682;2022-07-03T01:13:17;16.20;99.90
11025;DHT22;22890;51.820;8.682;2022-07-03T01:19:04;16.30;99.90
11025;DHT22;22890;51.820;8.682;2022-07-03T01:27:13;16.20;99.90
11025;DHT22;22890;51.820;8.682;2022-07-03T01:29:53;16.10;99.90
11025;DHT22;22890;51.820;8.682;2022-07-03T01:32:25;16.10;99.90
11025;DHT22;22890;51.820;8.682;2022-07-03T01:34:55;16.00;99.90
11025;DHT22;22890;51.820;8.682;2022-07-03T01:37:24;16.00;99.90
11025;DHT22;22890;51.820;8.682;2022-07-03T01:39:57;16.00;99.90
11025;DHT22;22890;51.820;8.682;2022-07-03T01:42:24;16.00;99.90
11025;DHT22;22890;51.820;8.682;2022-07-03T01:44:52;16.00;99.90
11025;DHT22;22890;51.820;8.682;2022-07-03T01:47:22;16.00;99.90
11025;DHT22;22890;51.820;8.682;2022-07-03T01:49:55;15.90;99.90
11025;DHT22;22890;51.820;8.682;2022-07-03T01:55:12;15.90;99.90
11025;DHT22;22890;51.820;8.682;2022-07-03T01:57:47;15.90;99.90
11025;DHT22;22890;51.820;8.682;2022-07-03T02:00:17;15.80;99.90
11025;DHT22;22890;51.820;8.682;2022-07-03T02:03:00;15.70;99.90
11025;DHT22;22890;51.820;8.682;2022-07-03T02:05:38;15.70;99.90
11025;DHT22;22890;51.820;8.682;2022-07-03T02:08:27;15.60;99.90
11025;DHT22;22890;51.820;8.682;2022-07-03T02:13:24;15.50;99.90
11025;DHT22;22890;51.820;8.682;2022-07-03T02:15:58;15.40;99.90
11025;DHT22;22890;51.820;8.682;2022-07-03T02:18:30;15.40;99.90
11025;DHT22;22890;51.820;8.682;2022-07-03T02:21:03;15.30;99.90
11025;DHT22;22890;51.820;8.682;2022-07-03T02:23:32;15.40;99.90
11025;DHT22;22890;51.820;8.682;2022-07-03T02:26:02;15.40;99.90
11025;DHT22;22890;51.820;8.682;2022-07-03T02:28:47;15.40;99.90
11025;DHT22;22890;51.820;8.682;2022-07-03T02:31:18;13.30;99.90
11025;DHT22;22890;51.820;8.682;2022-07-03T02:33:50;15.30;99.90
11025;DHT22;22890;51.820;8.682;2022-07-03T02:36:23;15.30;99.90
11025;DHT22;22890;51.820;8.682;2022-07-03T02:38:56;15.30;99.90
11025;DHT22;22890;51.820;8.682;2022-07-03T02:42:02;15.30;99.90
11025;DHT22;22890;51.820;8.682;2022-07-03T02:50:05;15.20;99.90
11025;DHT22;22890;51.820;8.682;2022-07-03T03:03:38;15.00;99.90
11025;DHT22;22890;51.820;8.682;2022-07-03T03:06:13;15.00;99.90
11025;DHT22;22890;51.820;8.682;2022-07-03T03:08:50;15.00;99.90
11025;DHT22;22890;51.820;8.682;2022-07-03T03:11:32;15.10;99.90
11025;DHT22;22890;51.820;8.682;2022-07-03T03:14:00;15.00;99.90
11025;DHT22;22890;51.820;8.682;2022-07-03T03:18:56;15.10;99.90
11025;DHT22;22890;51.820;8.682;2022-07-03T03:21:26;15.10;99.90
11025;DHT22;22890;51.820;8.682;2022-07-03T03:23:53;14.90;99.90
11025;DHT22;22890;51.820;8.682;2022-07-03T03:26:21;14.90;99.90
11025;DHT22;22890;51.820;8.682;2022-07-03T03:28:50;15.00;99.90
11025;DHT22;22890;51.820;8.682;2022-07-03T03:31:17;15.00;99.90
11025;DHT22;22890;51.820;8.682;2022-07-03T03:33:47;15.00;99.90
11025;DHT22;22890;51.820;8.682;2022-07-03T03:36:17;15.00;99.90
11025;DHT22;22890;51.820;8.682;2022-07-03T03:38:44;15.10;99.90
11025;DHT22;22890;51.820;8.682;2022-07-03T03:41:11;15.10;99.90
11025;DHT22;22890;51.820;8.682;2022-07-03T03:43:43;15.30;99.90
11025;DHT22;22890;51.820;8.682;2022-07-03T03:46:10;15.30;99.90
11025;DHT22;22890;51.820;8.682;2022-07-03T03:48:37;15.40;99.90
11025;DHT22;22890;51.820;8.682;2022-07-03T03:53:33;15.50;99.90
11025;DHT22;22890;51.820;8.682;2022-07-03T03:58:29;15.50;99.90
11025;DHT22;22890;51.820;8.682;2022-07-03T04:00:57;15.50;99.90
11025;DHT22;22890;51.820;8.682;2022-07-03T04:03:25;15.50;99.90
11025;DHT22;22890;51.820;8.682;2022-07-03T04:05:53;15.60;99.90
11025;DHT22;22890;51.820;8.682;2022-07-03T04:08:21;15.70;99.90
11025;DHT22;22890;51.820;8.682;2022-07-03T04:10:48;15.80;99.90
11025;DHT22;22890;51.820;8.682;2022-07-03T04:13:16;15.90;99.90
11025;DHT22;22890;51.820;8.682;2022-07-03T04:23:04;16.40;99.90
11025;DHT22;22890;51.820;8.682;2022-07-03T04:27:58;16.80;99.90
11025;DHT22;22890;51.820;8.682;2022-07-03T04:33:12;17.20;99.90
11025;DHT22;22890;51.820;8.682;2022-07-03T04:38:05;17.30;99.90
11025;DHT22;22890;51.820;8.682;2022-07-03T04:40:32;17.50;99.90
11025;DHT22;22890;51.820;8.682;2022-07-03T04:42:59;17.70;99.90
11025;DHT22;22890;51.820;8.682;2022-07-03T04:47:53;18.00;99.90
11025;DHT22;22890;51.820;8.682;2022-07-03T04:50:19;18.30;99.90
11025;DHT22;22890;51.820;8.682;2022-07-03T04:55:13;18.50;99.90
11025;DHT22;22890;51.820;8.682;2022-07-03T04:57:40;18.80;99.90
11025;DHT22;22890;51.820;8.682;2022-07-03T05:00:07;19.00;99.90
11025;DHT22;22890;51.820;8.682;2022-07-03T05:05:01;19.10;99.90
11025;DHT22;22890;51.820;8.682;2022-07-03T05:07:29;19.30;99.90
11025;DHT22;22890;51.820;8.682;2022-07-03T05:19:46;20.20;99.90
11025;DHT22;22890;51.820;8.682;2022-07-03T05:24:40;20.30;99.90
11025;DHT22;22890;51.820;8.682;2022-07-03T05:34:31;20.60;99.90
11025;DHT22;22890;51.820;8.682;2022-07-03T05:36:58;20.70;99.90
11025;DHT22;22890;51.820;8.682;2022-07-03T05:39:25;20.80;99.90
11025;DHT22;22890;51.820;8.682;2022-07-03T05:42:01;20.90;99.90
11025;DHT22;22890;51.820;8.682;2022-07-03T05:44:28;21.10;99.90
11025;DHT22;22890;51.820;8.682;2022-07-03T05:46:55;21.00;99.90
11025;DHT22;22890;51.820;8.682;2022-07-03T05:49:22;21.40;99.90
11025;DHT22;22890;51.820;8.682;2022-07-03T05:54:16;21.60;99.90
11025;DHT22;22890;51.820;8.682;2022-07-03T05:56:42;21.50;99.90
11025;DHT22;22890;51.820;8.682;2022-07-03T06:01:36;21.50;99.90
11025;DHT22;22890;51.820;8.682;2022-07-03T06:04:03;21.60;99.90
11025;DHT22;22890;51.820;8.682;2022-07-03T06:11:24;21.40;99.90
11025;DHT22;22890;51.820;8.682;2022-07-03T06:16:17;21.40;99.90
11025;DHT22;22890;51.820;8.682;2022-07-03T06:21:12;21.80;99.90
11025;DHT22;22890;51.820;8.682;2022-07-03T06:23:39;21.90;99.90
11025;DHT22;22890;51.820;8.682;2022-07-03T06:26:14;22.10;99.90
11025;DHT22;22890;51.820;8.682;2022-07-03T06:28:41;22.20;99.90
11025;DHT22;22890;51.820;8.682;2022-07-03T06:31:08;22.30;99.90
11025;DHT22;22890;51.820;8.682;2022-07-03T06:33:35;22.30;99.90
11025;DHT22;22890;51.820;8.682;2022-07-03T06:36:02;22.40;99.90
11025;DHT22;22890;51.820;8.682;2022-07-03T06:40:56;22.60;99.90
11025;DHT22;22890;51.820;8.682;2022-07-03T06:43:22;22.70;99.90
11025;DHT22;22890;51.820;8.682;2022-07-03T06:45:49;22.70;99.90
11025;DHT22;22890;51.820;8.682;2022-07-03T06:48:16;22.70;99.90
11025;DHT22;22890;51.820;8.682;2022-07-03T06:53:10;22.60;99.90
11025;DHT22;22890;51.820;8.682;2022-07-03T06:55:36;22.70;99.90
11025;DHT22;22890;51.820;8.682;2022-07-03T07:00:30;22.80;99.90
11025;DHT22;22890;51.820;8.682;2022-07-03T07:02:57;23.00;99.90
11025;DHT22;22890;51.820;8.682;2022-07-03T07:05:26;23.10;99.90
11025;DHT22;22890;51.820;8.682;2022-07-03T07:07:53;22.80;99.90
11025;DHT22;22890;51.820;8.682;2022-07-03T07:10:19;23.00;99.90
11025;DHT22;22890;51.820;8.682;2022-07-03T07:12:46;23.00;99.90
11025;DHT22;22890;51.820;8.682;2022-07-03T07:15:13;23.20;99.90
11025;DHT22;22890;51.820;8.682;2022-07-03T07:17:40;23.20;99.90
11025;DHT22;22890;51.820;8.682;2022-07-03T07:20:07;23.30;99.90
11025;DHT22;22890;51.820;8.682;2022-07-03T07:25:01;23.30;99.90
11025;DHT22;22890;51.820;8.682;2022-07-03T07:29:55;23.30;99.90
11025;DHT22;22890;51.820;8.682;2022-07-03T07:32:22;23.50;99.90
11025;DHT22;22890;51.820;8.682;2022-07-03T07:34:48;23.70;99.90
11025;DHT22;22890;51.820;8.682;2022-07-03T07:37:15;23.70;99.90
11025;DHT22;22890;51.820;8.682;2022-07-03T07:39:42;24.00;99.90
11025;DHT22;22890;51.820;8.682;2022-07-03T07:47:03;24.10;99.90
11025;DHT22;22890;51.820;8.682;2022-07-03T07:49:30;24.10;99.90
11025;DHT22;22890;51.820;8.682;2022-07-03T07:51:57;24.10;99.90
11025;DHT22;22890;51.820;8.682;2022-07-03T07:54:23;24.20;99.90
11025;DHT22;22890;51.820;8.682;2022-07-03T07:56:50;24.40;99.90
11025;DHT22;22890;51.820;8.682;2022-07-03T07:59:17;24.60;99.90
11025;DHT22;22890;51.820;8.682;2022-07-03T08:01:43;24.70;99.90
11025;DHT22;22890;51.820;8.682;2022-07-03T08:04:29;24.90;99.90
11025;DHT22;22890;51.820;8.682;2022-07-03T08:07:14;25.00;99.90
11025;DHT22;22890;51.820;8.682;2022-07-03T08:09:41;25.10;99.90
11025;DHT22;22890;51.820;8.682;2022-07-03T08:12:08;25.10;99.90
11025;DHT22;22890;51.820;8.682;2022-07-03T08:14:35;25.10;99.90
11025;DHT22;22890;51.820;8.682;2022-07-03T08:17:01;25.10;99.90
11025;DHT22;22890;51.820;8.682;2022-07-03T08:19:28;25.30;99.90
11025;DHT22;22890;51.820;8.682;2022-07-03T08:21:55;25.40;99.90
11025;DHT22;22890;51.820;8.682;2022-07-03T08:24:21;25.60;99.90
11025;DHT22;22890;51.820;8.682;2022-07-03T08:26:48;25.70;99.50
11025;DHT22;22890;51.820;8.682;2022-07-03T08:29:14;25.70;99.00
11025;DHT22;22890;51.820;8.682;2022-07-03T08:31:41;25.70;97.90
11025;DHT22;22890;51.820;8.682;2022-07-03T08:34:08;25.70;97.80
11025;DHT22;22890;51.820;8.682;2022-07-03T08:36:40;25.90;97.60
11025;DHT22;22890;51.820;8.682;2022-07-03T08:39:07;26.00;97.30
11025;DHT22;22890;51.820;8.682;2022-07-03T08:41:39;26.10;97.20
11025;DHT22;22890;51.820;8.682;2022-07-03T08:44:11;26.20;96.50
11025;DHT22;22890;51.820;8.682;2022-07-03T08:46:38;26.30;96.30
11025;DHT22;22890;51.820;8.682;2022-07-03T08:49:10;26.40;95.80
11025;DHT22;22890;51.820;8.682;2022-07-03T08:51:37;26.40;95.60
11025;DHT22;22890;51.820;8.682;2022-07-03T08:54:04;26.50;95.00
11025;DHT22;22890;51.820;8.682;2022-07-03T08:56:32;26.50;94.50
11025;DHT22;22890;51.820;8.682;2022-07-03T08:59:00;26.50;94.30
11025;DHT22;22890;51.820;8.682;2022-07-03T09:01:29;26.50;94.60
11025;DHT22;22890;51.820;8.682;2022-07-03T09:03:58;26.50;92.80
11025;DHT22;22890;51.820;8.682;2022-07-03T09:06:25;26.60;93.40
11025;DHT22;22890;51.820;8.682;2022-07-03T09:09:03;26.50;93.10
11025;DHT22;22890;51.820;8.682;2022-07-03T09:11:30;26.60;92.90
11025;DHT22;22890;51.820;8.682;2022-07-03T09:13:57;26.70;93.20
11025;DHT22;22890;51.820;8.682;2022-07-03T09:16:24;26.80;93.00
11025;DHT22;22890;51.820;8.682;2022-07-03T09:18:50;26.90;92.70
11025;DHT22;22890;51.820;8.682;2022-07-03T09:21:17;26.90;92.60
11025;DHT22;22890;51.820;8.682;2022-07-03T09:23:44;26.80;92.20
11025;DHT22;22890;51.820;8.682;2022-07-03T09:26:16;25.60;92.10
11025;DHT22;22890;51.820;8.682;2022-07-03T09:28:48;26.70;92.30
11025;DHT22;22890;51.820;8.682;2022-07-03T09:31:22;26.70;91.60
11025;DHT22;22890;51.820;8.682;2022-07-03T09:33:58;26.70;91.60
11025;DHT22;22890;51.820;8.682;2022-07-03T09:36:41;26.90;91.70
11025;DHT22;22890;51.820;8.682;2022-07-03T09:39:27;27.00;91.60
11025;DHT22;22890;51.820;8.682;2022-07-03T09:42:08;27.10;91.70
11025;DHT22;22890;51.820;8.682;2022-07-03T09:44:41;27.20;91.50
11025;DHT22;22890;51.820;8.682;2022-07-03T09:47:14;27.20;91.40
11025;DHT22;22890;51.820;8.682;2022-07-03T09:54:58;27.10;89.70
11025;DHT22;22890;51.820;8.682;2022-07-03T09:57:27;27.10;89.70
11025;DHT22;22890;51.820;8.682;2022-07-03T10:00:17;27.00;89.60
11025;DHT22;22890;51.820;8.682;2022-07-03T10:02:59;26.90;89.70
11025;DHT22;22890;51.820;8.682;2022-07-03T10:05:31;26.90;90.20
11025;DHT22;22890;51.820;8.682;2022-07-03T10:08:04;27.00;90.00
11025;DHT22;22890;51.820;8.682;2022-07-03T10:10:33;27.00;90.10
11025;DHT22;22890;51.820;8.682;2022-07-03T10:13:01;27.10;90.00
11025;DHT22;22890;51.820;8.682;2022-07-03T10:15:29;27.10;90.40
11025;DHT22;22890;51.820;8.682;2022-07-03T10:17:59;27.10;89.80
11025;DHT22;22890;51.820;8.682;2022-07-03T10:20:29;27.10;89.50
11025;DHT22;22890;51.820;8.682;2022-07-03T10:22:56;27.00;90.00
11025;DHT22;22890;51.820;8.682;2022-07-03T10:25:23;27.10;90.10
11025;DHT22;22890;51.820;8.682;2022-07-03T10:27:50;27.10;90.30
11025;DHT22;22890;51.820;8.682;2022-07-03T10:30:22;27.20;88.20
11025;DHT22;22890;51.820;8.682;2022-07-03T10:32:52;27.20;89.10
11025;DHT22;22890;51.820;8.682;2022-07-03T10:35:23;27.10;88.50
11025;DHT22;22890;51.820;8.682;2022-07-03T10:40:35;27.00;89.70
11025;DHT22;22890;51.820;8.682;2022-07-03T10:43:34;27.00;90.10
11025;DHT22;22890;51.820;8.682;2022-07-03T10:46:23;27.10;90.60
11025;DHT22;22890;51.820;8.682;2022-07-03T10:49:04;27.20;90.20
11025;DHT22;22890;51.820;8.682;2022-07-03T10:51:58;27.30;90.70
11025;DHT22;22890;51.820;8.682;2022-07-03T10:54:30;27.30;90.60
11025;DHT22;22890;51.820;8.682;2022-07-03T10:57:08;27.30;90.50
11025;DHT22;22890;51.820;8.682;2022-07-03T11:05:11;27.20;86.40
11025;DHT22;22890;51.820;8.682;2022-07-03T11:13:02;27.10;85.30
11025;DHT22;22890;51.820;8.682;2022-07-03T11:15:50;27.00;87.00
11025;DHT22;22890;51.820;8.682;2022-07-03T11:18:26;27.10;88.90
11025;DHT22;22890;51.820;8.682;2022-07-03T11:26:29;27.40;87.00
11025;DHT22;22890;51.820;8.682;2022-07-03T11:28:50;27.50;86.00
11025;DHT22;22890;51.820;8.682;2022-07-03T11:31:18;27.60;85.80
11025;DHT22;22890;51.820;8.682;2022-07-03T11:44:05;27.70;84.90
11025;DHT22;22890;51.820;8.682;2022-07-03T11:46:37;27.70;84.80
11025;DHT22;22890;51.820;8.682;2022-07-03T11:51:35;27.70;85.50
11025;DHT22;22890;51.820;8.682;2022-07-03T11:54:03;27.60;84.10
11025;DHT22;22890;51.820;8.682;2022-07-03T11:56:30;27.60;85.00
11025;DHT22;22890;51.820;8.682;2022-07-03T11:59:01;27.50;85.10
11025;DHT22;22890;51.820;8.682;2022-07-03T12:01:29;27.50;84.90
11025;DHT22;22890;51.820;8.682;2022-07-03T12:04:10;27.50;83.60
11025;DHT22;22890;51.820;8.682;2022-07-03T12:06:42;27.50;84.60
11025;DHT22;22890;51.820;8.682;2022-07-03T12:09:38;27.60;84.30
11025;DHT22;22890;51.820;8.682;2022-07-03T12:12:11;27.50;83.80
11025;DHT22;22890;51.820;8.682;2022-07-03T12:14:49;27.50;84.20
11025;DHT22;22890;51.820;8.682;2022-07-03T12:17:21;27.50;84.50
11025;DHT22;22890;51.820;8.682;2022-07-03T12:19:58;24.50;82.70
11025;DHT22;22890;51.820;8.682;2022-07-03T12:22:36;27.60;85.50
11025;DHT22;22890;51.820;8.682;2022-07-03T12:25:11;27.60;83.90
11025;DHT22;22890;51.820;8.682;2022-07-03T12:27:40;27.70;83.60
11025;DHT22;22890;51.820;8.682;2022-07-03T12:30:09;27.70;83.40
11025;DHT22;22890;51.820;8.682;2022-07-03T12:32:37;27.80;83.50
11025;DHT22;22890;51.820;8.682;2022-07-03T12:35:05;27.90;83.80
11025;DHT22;22890;51.820;8.682;2022-07-03T12:37:36;28.10;84.60
11025;DHT22;22890;51.820;8.682;2022-07-03T12:40:06;28.10;84.50
11025;DHT22;22890;51.820;8.682;2022-07-03T12:42:43;28.20;84.50
11025;DHT22;22890;51.820;8.682;2022-07-03T12:45:12;28.30;84.20
11025;DHT22;22890;51.820;8.682;2022-07-03T12:47:43;28.30;84.60
11025;DHT22;22890;51.820;8.682;2022-07-03T12:50:11;28.40;84.80
11025;DHT22;22890;51.820;8.682;2022-07-03T12:52:51;28.50;84.10
11025;DHT22;22890;51.820;8.682;2022-07-03T12:55:33;28.50;83.40
11025;DHT22;22890;51.820;8.682;2022-07-03T12:58:18;28.40;82.30
11025;DHT22;22890;51.820;8.682;2022-07-03T13:01:26;31.20;85.10
11025;DHT22;22890;51.820;8.682;2022-07-03T13:03:54;28.40;79.20
11025;DHT22;22890;51.820;8.682;2022-07-03T13:06:22;28.40;80.20
11025;DHT22;22890;51.820;8.682;2022-07-03T13:08:54;28.40;80.30
11025;DHT22;22890;51.820;8.682;2022-07-03T13:16:53;28.40;78.80
11025;DHT22;22890;51.820;8.682;2022-07-03T13:19:22;28.50;78.50
11025;DHT22;22890;51.820;8.682;2022-07-03T13:21:52;28.50;78.50
11025;DHT22;22890;51.820;8.682;2022-07-03T13:24:19;28.50;78.80
11025;DHT22;22890;51.820;8.682;2022-07-03T13:26:47;28.50;78.50
11025;DHT22;22890;51.820;8.682;2022-07-03T13:29:20;28.40;78.60
11025;DHT22;22890;51.820;8.682;2022-07-03T13:31:47;28.40;78.90
11025;DHT22;22890;51.820;8.682;2022-07-03T13:34:13;28.40;79.20
11025;DHT22;22890;51.820;8.682;2022-07-03T13:36:40;28.40;78.90
11025;DHT22;22890;51.820;8.682;2022-07-03T13:39:07;28.40;78.70
11025;DHT22;22890;51.820;8.682;2022-07-03T13:41:35;28.30;78.20
11025;DHT22;22890;51.820;8.682;2022-07-03T13:44:03;28.20;78.70
11025;DHT22;22890;51.820;8.682;2022-07-03T13:46:30;28.30;79.10
11025;DHT22;22890;51.820;8.682;2022-07-03T13:48:56;28.30;79.30
11025;DHT22;22890;51.820;8.682;2022-07-03T13:51:23;28.40;79.70
11025;DHT22;22890;51.820;8.682;2022-07-03T13:53:50;28.40;79.70
11025;DHT22;22890;51.820;8.682;2022-07-03T13:56:17;28.40;79.20
11025;DHT22;22890;51.820;8.682;2022-07-03T13:58:44;28.50;79.20
11025;DHT22;22890;51.820;8.682;2022-07-03T14:01:19;28.60;79.60
11025;DHT22;22890;51.820;8.682;2022-07-03T14:03:47;28.50;78.70
11025;DHT22;22890;51.820;8.682;2022-07-03T14:06:14;28.50;79.20
11025;DHT22;22890;51.820;8.682;2022-07-03T14:08:40;28.50;79.70
11025;DHT22;22890;51.820;8.682;2022-07-03T14:11:07;28.50;79.80
11025;DHT22;22890;51.820;8.682;2022-07-03T14:13:34;28.40;79.90
11025;DHT22;22890;51.820;8.682;2022-07-03T14:16:00;28.30;79.60
11025;DHT22;22890;51.820;8.682;2022-07-03T14:18:27;28.20;80.20
11025;DHT22;22890;51.820;8.682;2022-07-03T14:20:54;28.20;80.60
11025;DHT22;22890;51.820;8.682;2022-07-03T14:23:21;28.10;80.70
11025;DHT22;22890;51.820;8.682;2022-07-03T14:25:47;28.00;81.20
11025;DHT22;22890;51.820;8.682;2022-07-03T14:28:14;28.00;81.40
11025;DHT22;22890;51.820;8.682;2022-07-03T14:30:59;27.80;81.60
11025;DHT22;22890;51.820;8.682;2022-07-03T14:33:45;27.70;82.30
11025;DHT22;22890;51.820;8.682;2022-07-03T14:36:13;27.70;82.20
11025;DHT22;22890;51.820;8.682;2022-07-03T14:39:00;27.60;82.60
11025;DHT22;22890;51.820;8.682;2022-07-03T14:41:26;27.60;83.40
11025;DHT22;22890;51.820;8.682;2022-07-03T14:43:53;27.70;83.50
11025;DHT22;22890;51.820;8.682;2022-07-03T14:46:20;27.70;83.80
11025;DHT22;22890;51.820;8.682;2022-07-03T14:48:46;27.80;84.20
11025;DHT22;22890;51.820;8.682;2022-07-03T14:51:13;27.90;84.50
11025;DHT22;22890;51.820;8.682;2022-07-03T14:53:41;28.00;84.10
11025;DHT22;22890;51.820;8.682;2022-07-03T14:56:15;28.10;83.40
11025;DHT22;22890;51.820;8.682;2022-07-03T14:58:44;28.30;83.60
11025;DHT22;22890;51.820;8.682;2022-07-03T15:01:11;28.40;83.90
11025;DHT22;22890;51.820;8.682;2022-07-03T15:03:51;28.50;83.90
11025;DHT22;22890;51.820;8.682;2022-07-03T15:06:20;28.50;83.80
11025;DHT22;22890;51.820;8.682;2022-07-03T15:09:01;28.60;83.30
11025;DHT22;22890;51.820;8.682;2022-07-03T15:11:39;28.50;83.50
11025;DHT22;22890;51.820;8.682;2022-07-03T15:14:30;28.50;84.00
11025;DHT22;22890;51.820;8.682;2022-07-03T15:17:04;28.50;84.10
11025;DHT22;22890;51.820;8.682;2022-07-03T15:19:34;28.50;84.00
11025;DHT22;22890;51.820;8.682;2022-07-03T15:22:04;28.50;83.10
11025;DHT22;22890;51.820;8.682;2022-07-03T15:24:30;28.50;83.00
11025;DHT22;22890;51.820;8.682;2022-07-03T15:26:57;28.50;83.50
11025;DHT22;22890;51.820;8.682;2022-07-03T15:29:24;28.60;84.00
11025;DHT22;22890;51.820;8.682;2022-07-03T15:31:50;28.70;84.30
11025;DHT22;22890;51.820;8.682;2022-07-03T15:34:17;28.70;84.10
11025;DHT22;22890;51.820;8.682;2022-07-03T15:48:07;28.70;81.80
11025;DHT22;22890;51.820;8.682;2022-07-03T15:50:51;28.60;82.20
11025;DHT22;22890;51.820;8.682;2022-07-03T15:53:22;28.60;82.30
11025;DHT22;22890;51.820;8.682;2022-07-03T15:55:56;28.60;82.80
11025;DHT22;22890;51.820;8.682;2022-07-03T15:58:30;28.60;82.60
11025;DHT22;22890;51.820;8.682;2022-07-03T16:01:03;28.50;81.80
11025;DHT22;22890;51.820;8.682;2022-07-03T16:04:02;28.60;82.00
11025;DHT22;22890;51.820;8.682;2022-07-03T16:06:39;28.60;82.00
11025;DHT22;22890;51.820;8.682;2022-07-03T16:09:07;28.60;81.70
11025;DHT22;22890;51.820;8.682;2022-07-03T16:11:35;28.40;82.20
11025;DHT22;22890;51.820;8.682;2022-07-03T16:14:03;28.30;82.60
11025;DHT22;22890;51.820;8.682;2022-07-03T16:16:32;28.20;82.90
11025;DHT22;22890;51.820;8.682;2022-07-03T16:19:01;28.10;83.20
11025;DHT22;22890;51.820;8.682;2022-07-03T16:21:29;28.00;83.20
11025;DHT22;22890;51.820;8.682;2022-07-03T16:23:58;27.90;83.20
11025;DHT22;22890;51.820;8.682;2022-07-03T16:26:26;27.90;83.80
11025;DHT22;22890;51.820;8.682;2022-07-03T16:28:54;27.90;84.20
11025;DHT22;22890;51.820;8.682;2022-07-03T16:31:25;27.80;84.10
11025;DHT22;22890;51.820;8.682;2022-07-03T16:34:07;27.80;84.60
11025;DHT22;22890;51.820;8.682;2022-07-03T16:36:37;27.70;84.30
11025;DHT22;22890;51.820;8.682;2022-07-03T16:39:06;27.70;84.40
11025;DHT22;22890;51.820;8.682;2022-07-03T16:41:38;27.70;84.40
11025;DHT22;22890;51.820;8.682;2022-07-03T16:44:09;27.60;82.90
11025;DHT22;22890;51.820;8.682;2022-07-03T16:46:40;27.50;83.50
11025;DHT22;22890;51.820;8.682;2022-07-03T16:49:09;27.50;84.00
11025;DHT22;22890;51.820;8.682;2022-07-03T16:51:38;27.60;84.40
11025;DHT22;22890;51.820;8.682;2022-07-03T16:54:08;27.60;84.60
11025;DHT22;22890;51.820;8.682;2022-07-03T16:56:36;27.70;85.70
11025;DHT22;22890;51.820;8.682;2022-07-03T16:59:03;27.70;84.80
11025;DHT22;22890;51.820;8.682;2022-07-03T17:01:31;27.60;84.20
11025;DHT22;22890;51.820;8.682;2022-07-03T17:04:00;27.50;84.60
11025;DHT22;22890;51.820;8.682;2022-07-03T17:06:27;27.40;85.10
11025;DHT22;22890;51.820;8.682;2022-07-03T17:08:54;27.50;85.70
11025;DHT22;22890;51.820;8.682;2022-07-03T17:11:22;27.50;85.90
11025;DHT22;22890;51.820;8.682;2022-07-03T17:13:49;27.50;85.70
11025;DHT22;22890;51.820;8.682;2022-07-03T17:16:16;27.60;85.80
11025;DHT22;22890;51.820;8.682;2022-07-03T17:18:50;27.60;85.60
11025;DHT22;22890;51.820;8.682;2022-07-03T17:21:26;27.60;85.30
11025;DHT22;22890;51.820;8.682;2022-07-03T17:23:54;27.40;84.80
11025;DHT22;22890;51.820;8.682;2022-07-03T17:26:23;27.40;84.90
11025;DHT22;22890;51.820;8.682;2022-07-03T17:28:59;27.20;84.60
11025;DHT22;22890;51.820;8.682;2022-07-03T17:31:26;27.10;85.00
11025;DHT22;22890;51.820;8.682;2022-07-03T17:33:57;27.00;85.30
11025;DHT22;22890;51.820;8.682;2022-07-03T17:36:25;27.00;85.60
11025;DHT22;22890;51.820;8.682;2022-07-03T17:38:55;27.10;85.80
11025;DHT22;22890;51.820;8.682;2022-07-03T17:41:30;27.10;85.70
11025;DHT22;22890;51.820;8.682;2022-07-03T17:43:58;27.00;85.70
11025;DHT22;22890;51.820;8.682;2022-07-03T17:46:25;26.90;85.70
11025;DHT22;22890;51.820;8.682;2022-07-03T17:48:53;26.80;86.00
11025;DHT22;22890;51.820;8.682;2022-07-03T17:51:23;26.60;86.10
11025;DHT22;22890;51.820;8.682;2022-07-03T17:53:50;26.50;86.00
11025;DHT22;22890;51.820;8.682;2022-07-03T17:56:21;26.50;86.70
11025;DHT22;22890;51.820;8.682;2022-07-03T17:58:50;26.50;87.00
11025;DHT22;22890;51.820;8.682;2022-07-03T18:01:23;26.50;87.00
11025;DHT22;22890;51.820;8.682;2022-07-03T18:03:50;26.50;87.00
11025;DHT22;22890;51.820;8.682;2022-07-03T18:06:19;26.50;87.00
11025;DHT22;22890;51.820;8.682;2022-07-03T18:09:20;26.30;87.00
11025;DHT22;22890;51.820;8.682;2022-07-03T18:11:52;26.30;87.40
11025;DHT22;22890;51.820;8.682;2022-07-03T18:15:23;26.20;87.60
11025;DHT22;22890;51.820;8.682;2022-07-03T18:17:31;26.00;88.10
11025;DHT22;22890;51.820;8.682;2022-07-03T18:20:01;25.80;88.40
11025;DHT22;22890;51.820;8.682;2022-07-03T18:22:28;25.80;89.00
11025;DHT22;22890;51.820;8.682;2022-07-03T18:24:57;25.70;89.20
11025;DHT22;22890;51.820;8.682;2022-07-03T18:27:28;25.70;89.40
11025;DHT22;22890;51.820;8.682;2022-07-03T18:29:56;26.70;90.20
11025;DHT22;22890;51.820;8.682;2022-07-03T18:32:25;25.60;90.00
11025;DHT22;22890;51.820;8.682;2022-07-03T18:34:52;25.50;90.10
11025;DHT22;22890;51.820;8.682;2022-07-03T18:37:21;25.40;90.30
11025;DHT22;22890;51.820;8.682;2022-07-03T18:39:49;25.30;90.50
11025;DHT22;22890;51.820;8.682;2022-07-03T18:42:18;24.80;90.30
11025;DHT22;22890;51.820;8.682;2022-07-03T18:44:46;25.20;90.60
11025;DHT22;22890;51.820;8.682;2022-07-03T18:47:12;25.20;90.70
11025;DHT22;22890;51.820;8.682;2022-07-03T18:49:39;25.10;90.70
11025;DHT22;22890;51.820;8.682;2022-07-03T18:52:08;25.00;90.80
11025;DHT22;22890;51.820;8.682;2022-07-03T18:55:28;25.00;90.80
11025;DHT22;22890;51.820;8.682;2022-07-03T18:57:36;25.00;90.90
11025;DHT22;22890;51.820;8.682;2022-07-03T19:00:07;24.90;91.00
11025;DHT22;22890;51.820;8.682;2022-07-03T19:05:17;24.80;91.30